createdAt,value
2022-08-05T00:00:12.960Z,19.70
2022-08-05T00:02:43.837Z,19.70
2022-08-05T00:06:02.496Z,19.70
2022-08-05T00:08:05.458Z,19.70
2022-08-05T00:10:51.948Z,19.70
2022-08-05T00:13:19.771Z,19.70
2022-08-05T00:15:54.969Z,19.60
2022-08-05T00:18:24.727Z,19.50
2022-08-05T00:20:51.728Z,19.50
2022-08-05T00:23:44.424Z,19.50
2022-08-05T00:26:06.455Z,19.40
2022-08-05T00:28:33.501Z,19.40
2022-08-05T00:31:04.248Z,19.40
2022-08-05T00:34:54.216Z,19.40
2022-08-05T00:37:10.379Z,19.40
2022-08-05T00:39:05.950Z,19.30
2022-08-05T00:41:51.729Z,19.30
2022-08-05T00:44:30.430Z,19.30
2022-08-05T00:47:01.964Z,19.20
2022-08-05T00:49:32.601Z,19.20
2022-08-05T00:52:11.343Z,19.20
2022-08-05T00:54:38.811Z,19.20
2022-08-05T00:57:05.858Z,19.20
2022-08-05T00:59:34.631Z,19.20
2022-08-05T01:02:11.317Z,19.10
2022-08-05T01:04:38.138Z,19.10
2022-08-05T01:07:13.729Z,19.10
2022-08-05T01:09:41.920Z,19.10
2022-08-05T01:12:18.703Z,19.00
2022-08-05T01:14:50.600Z,19.00
2022-08-05T01:17:40.329Z,19.00
2022-08-05T01:20:17.064Z,18.90
2022-08-05T01:23:05.813Z,18.90
2022-08-05T01:25:53.408Z,18.80
2022-08-05T01:28:31.889Z,18.80
2022-08-05T01:31:21.609Z,18.70
2022-08-05T01:34:01.925Z,18.70
2022-08-05T01:36:31.631Z,18.60
2022-08-05T01:39:00.940Z,18.60
2022-08-05T01:41:29.652Z,18.60
2022-08-05T01:43:56.485Z,18.60
2022-08-05T01:46:42.376Z,18.50
2022-08-05T01:49:23.817Z,18.40
2022-08-05T01:51:53.765Z,18.40
2022-08-05T01:54:20.618Z,18.40
2022-08-05T01:58:12.557Z,18.40
2022-08-05T01:59:40.038Z,18.40
2022-08-05T02:02:07.027Z,18.40
2022-08-05T02:04:38.000Z,18.40
2022-08-05T02:07:07.395Z,18.30
2022-08-05T02:09:36.696Z,18.40
2022-08-05T02:12:22.766Z,18.30
2022-08-05T02:15:14.792Z,18.20
2022-08-05T02:18:33.258Z,18.20
2022-08-05T02:20:58.908Z,18.20
2022-08-05T02:23:33.763Z,18.20
2022-08-05T02:26:03.146Z,18.10
2022-08-05T02:28:33.097Z,18.10
2022-08-05T02:31:14.588Z,18.10
2022-08-05T02:33:45.058Z,17.90
2022-08-05T02:36:16.625Z,17.90
2022-08-05T02:38:53.646Z,17.90
2022-08-05T02:41:21.188Z,17.90
2022-08-05T02:44:06.758Z,17.90
2022-08-05T02:46:53.437Z,18.00
2022-08-05T02:49:23.668Z,17.80
2022-08-05T02:52:02.917Z,17.70
2022-08-05T02:54:36.506Z,17.70
2022-08-05T02:57:09.767Z,17.80
2022-08-05T02:59:50.118Z,17.80
2022-08-05T03:02:23.239Z,17.70
2022-08-05T03:04:53.345Z,17.70
2022-08-05T03:07:48.438Z,17.70
2022-08-05T03:10:07.951Z,17.70
2022-08-05T03:12:36.169Z,17.70
2022-08-05T03:15:07.435Z,17.60
2022-08-05T03:17:41.907Z,17.50
2022-08-05T03:20:12.022Z,17.50
2022-08-05T03:22:44.142Z,17.50
2022-08-05T03:25:33.904Z,17.50
2022-08-05T03:28:08.468Z,17.50
2022-08-05T03:30:35.508Z,17.40
2022-08-05T03:33:03.147Z,17.40
2022-08-05T03:35:30.889Z,17.40
2022-08-05T03:38:00.874Z,17.20
2022-08-05T03:40:31.870Z,17.20
2022-08-05T03:42:59.613Z,17.20
2022-08-05T03:45:57.188Z,17.30
2022-08-05T03:48:25.409Z,17.20
2022-08-05T03:52:36.507Z,17.20
2022-08-05T03:55:49.881Z,17.20
2022-08-05T03:56:46.248Z,17.10
2022-08-05T03:59:21.805Z,17.10
2022-08-05T04:01:52.287Z,17.20
2022-08-05T04:04:21.265Z,17.20
2022-08-05T04:06:51.376Z,17.20
2022-08-05T04:09:25.811Z,17.00
2022-08-05T04:11:53.024Z,16.90
2022-08-05T04:14:29.923Z,16.90
2022-08-05T04:16:58.528Z,17.00
2022-08-05T04:19:25.352Z,17.00
2022-08-05T04:22:08.789Z,17.00
2022-08-05T04:24:44.299Z,17.00
2022-08-05T04:27:12.758Z,17.00
2022-08-05T04:29:40.398Z,16.90
2022-08-05T04:32:07.926Z,16.80
2022-08-05T04:34:37.507Z,16.80
2022-08-05T04:37:09.955Z,16.70
2022-08-05T04:39:37.703Z,16.70
2022-08-05T04:42:06.558Z,16.80
2022-08-05T04:44:33.483Z,16.70
2022-08-05T04:47:09.829Z,16.70
2022-08-05T04:50:02.509Z,16.70
2022-08-05T04:52:27.784Z,16.70
2022-08-05T04:54:56.984Z,16.60
2022-08-05T04:57:28.816Z,16.60
2022-08-05T04:59:56.592Z,16.60
2022-08-05T05:02:36.167Z,16.60
2022-08-05T05:05:16.838Z,16.60
2022-08-05T05:07:56.608Z,16.60
2022-08-05T05:10:28.933Z,16.70
2022-08-05T05:12:56.790Z,16.70
2022-08-05T05:15:57.847Z,16.70
2022-08-05T05:18:27.941Z,16.70
2022-08-05T05:20:58.518Z,16.60
2022-08-05T05:23:25.473Z,16.60
2022-08-05T05:25:52.217Z,16.60
2022-08-05T05:28:19.575Z,16.70
2022-08-05T05:30:49.670Z,16.70
2022-08-05T05:33:17.327Z,16.70
2022-08-05T05:35:48.022Z,16.70
2022-08-05T05:38:22.568Z,16.50
2022-08-05T05:40:55.017Z,16.40
2022-08-05T05:43:56.814Z,16.40
2022-08-05T05:46:17.798Z,16.40
2022-08-05T05:48:48.254Z,16.50
2022-08-05T05:51:25.543Z,16.60
2022-08-05T05:53:58.147Z,16.60
2022-08-05T05:56:32.217Z,16.60
2022-08-05T05:59:03.071Z,16.60
2022-08-05T06:01:37.035Z,16.70
2022-08-05T06:04:08.568Z,16.70
2022-08-05T06:06:47.805Z,16.70
2022-08-05T06:09:17.541Z,16.70
2022-08-05T06:12:01.442Z,16.70
2022-08-05T06:14:30.866Z,16.70
2022-08-05T06:16:58.304Z,16.70
2022-08-05T06:19:26.114Z,16.70
2022-08-05T06:22:06.847Z,16.60
2022-08-05T06:24:34.750Z,16.60
2022-08-05T06:27:02.085Z,16.70
2022-08-05T06:29:49.372Z,16.70
2022-08-05T06:32:25.825Z,16.80
2022-08-05T06:34:57.258Z,16.90
2022-08-05T06:37:55.818Z,17.00
2022-08-05T06:40:13.716Z,17.00
2022-08-05T06:42:40.689Z,16.90
2022-08-05T06:45:08.893Z,17.00
2022-08-05T06:48:36.023Z,17.00
2022-08-05T06:50:27.085Z,17.10
2022-08-05T06:53:03.946Z,17.10
2022-08-05T06:55:42.014Z,17.10
2022-08-05T06:58:19.776Z,17.10
2022-08-05T07:00:47.474Z,17.10
2022-08-05T07:03:14.324Z,17.10
2022-08-05T07:05:43.750Z,17.10
2022-08-05T07:08:13.114Z,17.10
2022-08-05T07:10:53.403Z,17.10
2022-08-05T07:13:58.681Z,17.10
2022-08-05T07:17:56.442Z,17.20
2022-08-05T07:22:28.405Z,17.40
2022-08-05T07:25:22.433Z,17.40
2022-08-05T07:27:57.399Z,17.50
2022-08-05T07:30:32.150Z,17.50
2022-08-05T07:33:00.780Z,17.50
2022-08-05T07:36:03.642Z,17.60
2022-08-05T07:38:32.549Z,17.60
2022-08-05T07:41:16.868Z,17.70
2022-08-05T07:43:49.697Z,17.70
2022-08-05T07:46:24.386Z,17.80
2022-08-05T07:49:03.026Z,17.80
2022-08-05T07:51:40.417Z,17.80
2022-08-05T07:54:15.191Z,17.80
2022-08-05T07:57:14.062Z,17.80
2022-08-05T07:59:38.148Z,17.80
2022-08-05T08:02:15.988Z,17.90
2022-08-05T08:04:45.894Z,17.90
2022-08-05T08:07:13.667Z,18.00
2022-08-05T08:09:40.581Z,18.00
2022-08-05T08:12:35.134Z,18.20
2022-08-05T08:14:54.339Z,18.20
2022-08-05T08:17:21.616Z,18.00
2022-08-05T08:20:22.441Z,18.10
2022-08-05T08:22:35.509Z,18.20
2022-08-05T08:25:03.111Z,18.30
2022-08-05T08:27:40.419Z,18.40
2022-08-05T08:30:20.287Z,18.40
2022-08-05T08:33:04.491Z,18.40
2022-08-05T08:35:41.298Z,18.30
2022-08-05T08:38:11.704Z,18.40
2022-08-05T08:40:46.735Z,18.40
2022-08-05T08:44:56.416Z,18.50
2022-08-05T08:46:06.211Z,18.50
2022-08-05T08:49:03.089Z,18.60
2022-08-05T08:52:06.061Z,18.60
2022-08-05T08:54:10.800Z,18.70
2022-08-05T08:56:47.875Z,18.70
2022-08-05T08:59:21.068Z,18.70
2022-08-05T09:01:57.257Z,18.70
2022-08-05T09:04:30.528Z,18.70
2022-08-05T09:06:58.500Z,18.90
2022-08-05T09:09:26.003Z,19.10
2022-08-05T09:12:13.547Z,19.00
2022-08-05T09:14:56.315Z,19.00
2022-08-05T09:17:40.758Z,18.90
2022-08-05T09:20:09.284Z,18.90
2022-08-05T09:23:19.191Z,18.90
2022-08-05T09:26:02.229Z,18.90
2022-08-05T09:28:33.194Z,19.00
2022-08-05T09:31:22.969Z,19.10
2022-08-05T09:34:03.326Z,19.30
2022-08-05T09:36:56.022Z,19.30
2022-08-05T09:39:27.836Z,19.20
2022-08-05T09:42:23.898Z,19.10
2022-08-05T09:44:55.979Z,19.30
2022-08-05T09:47:24.848Z,19.40
2022-08-05T09:50:01.375Z,19.30
2022-08-05T09:52:33.620Z,19.40
2022-08-05T09:55:55.371Z,19.70
2022-08-05T09:57:48.691Z,19.90
2022-08-05T10:00:16.731Z,20.30
2022-08-05T10:02:47.871Z,20.80
2022-08-05T10:05:20.108Z,21.30
2022-08-05T10:08:37.061Z,21.50
2022-08-05T10:10:44.821Z,21.10
2022-08-05T10:13:11.873Z,21.30
2022-08-05T10:15:41.605Z,21.30
2022-08-05T10:18:12.549Z,21.50
2022-08-05T10:20:59.825Z,21.80
2022-08-05T10:23:59.315Z,21.60
2022-08-05T10:26:27.934Z,21.80
2022-08-05T10:28:59.422Z,22.30
2022-08-05T10:32:51.791Z,22.70
2022-08-05T10:34:13.796Z,22.80
2022-08-05T10:36:41.795Z,22.80
2022-08-05T10:39:25.182Z,22.80
2022-08-05T10:42:21.532Z,22.30
2022-08-05T10:44:59.463Z,22.40
2022-08-05T10:47:34.287Z,22.70
2022-08-05T10:50:31.749Z,22.60
2022-08-05T10:52:58.638Z,22.30
2022-08-05T10:55:25.942Z,22.40
2022-08-05T10:58:09.354Z,22.50
2022-08-05T11:00:42.273Z,22.40
2022-08-05T11:03:24.604Z,21.90
2022-08-05T11:06:15.429Z,21.90
2022-08-05T11:09:16.480Z,21.90
2022-08-05T11:11:53.201Z,21.40
2022-08-05T11:15:11.883Z,21.10
2022-08-05T11:18:00.280Z,21.20
2022-08-05T11:20:44.285Z,21.20
2022-08-05T11:24:05.437Z,20.70
2022-08-05T11:26:32.410Z,20.80
2022-08-05T11:29:12.729Z,20.90
2022-08-05T11:31:57.571Z,21.10
2022-08-05T11:34:39.028Z,21.30
2022-08-05T11:38:36.741Z,21.50
2022-08-05T11:39:55.482Z,21.50
2022-08-05T11:42:27.981Z,21.50
2022-08-05T11:44:56.347Z,21.50
2022-08-05T11:47:49.728Z,21.40
2022-08-05T11:50:14.262Z,21.40
2022-08-05T11:52:41.658Z,21.50
2022-08-05T11:55:11.418Z,21.70
2022-08-05T11:58:10.289Z,21.80
2022-08-05T12:00:30.335Z,22.10
2022-08-05T12:02:57.469Z,22.00
2022-08-05T12:05:36.132Z,22.00
2022-08-05T12:08:11.000Z,22.00
2022-08-05T12:10:45.249Z,21.60
2022-08-05T12:13:16.372Z,21.50
2022-08-05T12:15:49.766Z,21.50
2022-08-05T12:18:20.601Z,21.60
2022-08-05T12:20:50.979Z,21.50
2022-08-05T12:23:18.274Z,21.50
2022-08-05T12:25:52.623Z,21.30
2022-08-05T12:28:37.011Z,21.70
2022-08-05T12:31:05.050Z,21.90
2022-08-05T12:33:36.448Z,21.80
2022-08-05T12:36:09.143Z,22.10
2022-08-05T12:38:40.161Z,22.40
2022-08-05T12:41:14.859Z,22.60
2022-08-05T12:43:50.521Z,22.60
2022-08-05T12:46:29.236Z,22.60
2022-08-05T12:49:15.023Z,22.70
2022-08-05T12:52:12.864Z,22.70
2022-08-05T12:54:36.667Z,22.90
2022-08-05T12:57:09.241Z,23.10
2022-08-05T13:01:58.168Z,23.10
2022-08-05T13:02:37.167Z,23.30
2022-08-05T13:05:07.146Z,23.40
2022-08-05T13:07:59.660Z,23.30
2022-08-05T13:10:20.852Z,23.20
2022-08-05T13:12:51.322Z,23.30
2022-08-05T13:15:42.117Z,23.50
2022-08-05T13:18:19.507Z,23.50
2022-08-05T13:20:46.822Z,23.30
2022-08-05T13:23:13.601Z,23.10
2022-08-05T13:25:51.898Z,23.10
2022-08-05T13:28:25.897Z,22.90
2022-08-05T13:30:53.428Z,23.00
2022-08-05T13:34:21.143Z,23.10
2022-08-05T13:36:09.138Z,23.20
2022-08-05T13:38:42.342Z,23.30
2022-08-05T13:41:10.733Z,23.50
2022-08-05T13:43:44.271Z,23.00
2022-08-05T13:46:13.097Z,22.80
2022-08-05T13:48:58.323Z,23.20
2022-08-05T13:51:29.307Z,23.50
2022-08-05T13:54:03.501Z,24.00
2022-08-05T13:56:45.038Z,24.00
2022-08-05T13:59:24.564Z,23.90
2022-08-05T14:01:58.146Z,23.80
2022-08-05T14:04:53.132Z,23.70
2022-08-05T14:07:59.814Z,23.90
2022-08-05T14:10:30.717Z,24.30
2022-08-05T14:12:58.374Z,24.70
2022-08-05T14:16:04.403Z,25.00
2022-08-05T14:18:14.946Z,24.90
2022-08-05T14:20:47.356Z,25.60
2022-08-05T14:23:23.449Z,26.10
2022-08-05T14:25:53.862Z,26.30
2022-08-05T14:28:26.323Z,26.30
2022-08-05T14:30:54.784Z,25.40
2022-08-05T14:33:22.859Z,25.20
2022-08-05T14:35:51.822Z,25.10
2022-08-05T14:38:33.366Z,24.80
2022-08-05T14:41:06.459Z,24.70
2022-08-05T14:44:02.461Z,25.50
2022-08-05T14:46:28.488Z,25.70
2022-08-05T14:49:06.816Z,26.20
2022-08-05T14:51:36.497Z,26.60
2022-08-05T14:54:27.046Z,26.10
2022-08-05T14:56:53.687Z,25.50
2022-08-05T14:59:21.775Z,25.00
2022-08-05T15:01:49.771Z,25.30
2022-08-05T15:04:20.774Z,25.70
2022-08-05T15:06:50.310Z,25.40
2022-08-05T15:09:51.890Z,25.00
2022-08-05T15:12:08.890Z,24.30
2022-08-05T15:14:48.305Z,25.20
2022-08-05T15:17:46.290Z,26.20
2022-08-05T15:20:05.009Z,27.00
2022-08-05T15:22:31.940Z,26.00
2022-08-05T15:24:59.258Z,25.20
2022-08-05T15:27:26.282Z,25.30
2022-08-05T15:29:59.129Z,25.20
2022-08-05T15:32:28.644Z,26.10
2022-08-05T15:34:56.247Z,26.80
2022-08-05T15:38:09.187Z,27.00
2022-08-05T15:41:01.805Z,27.30
2022-08-05T15:43:09.355Z,27.60
2022-08-05T15:45:45.531Z,27.70
2022-08-05T15:48:14.522Z,27.80
2022-08-05T15:50:43.667Z,27.70
2022-08-05T15:53:13.089Z,27.60
2022-08-05T15:56:02.183Z,27.60
2022-08-05T15:58:28.546Z,27.60
2022-08-05T16:01:11.753Z,27.30
2022-08-05T16:03:42.350Z,27.10
2022-08-05T16:06:11.400Z,27.00
2022-08-05T16:08:38.829Z,26.40
2022-08-05T16:11:07.134Z,26.20
2022-08-05T16:13:35.320Z,26.00
2022-08-05T16:16:03.911Z,25.80
2022-08-05T16:18:32.972Z,25.60
2022-08-05T16:21:04.283Z,25.60
2022-08-05T16:23:53.875Z,25.20
2022-08-05T16:26:26.437Z,25.00
2022-08-05T16:28:54.809Z,24.80
2022-08-05T16:31:25.268Z,24.80
2022-08-05T16:33:52.282Z,24.70
2022-08-05T16:36:23.860Z,24.60
2022-08-05T16:38:54.962Z,25.20
2022-08-05T16:42:15.302Z,25.90
2022-08-05T16:44:16.491Z,25.60
2022-08-05T16:46:55.696Z,25.30
2022-08-05T16:49:23.384Z,25.10
2022-08-05T16:51:51.334Z,24.90
2022-08-05T16:54:27.479Z,24.70
2022-08-05T16:56:58.787Z,24.40
2022-08-05T16:59:27.888Z,24.10
2022-08-05T17:01:57.550Z,24.00
2022-08-05T17:04:28.246Z,23.90
2022-08-05T17:07:01.824Z,23.80
2022-08-05T17:09:38.765Z,23.80
2022-08-05T17:12:17.565Z,24.10
2022-08-05T17:14:49.773Z,24.90
2022-08-05T17:17:16.578Z,25.80
2022-08-05T17:19:46.571Z,26.10
2022-08-05T17:22:25.034Z,26.40
2022-08-05T17:24:57.154Z,26.90
2022-08-05T17:27:33.861Z,26.90
2022-08-05T17:30:02.715Z,27.40
2022-08-05T17:32:30.154Z,28.00
2022-08-05T17:35:00.464Z,28.40
2022-08-05T17:37:39.567Z,28.40
2022-08-05T17:40:12.987Z,28.50
2022-08-05T17:42:41.707Z,28.70
2022-08-05T17:45:20.063Z,28.50
2022-08-05T17:47:53.869Z,27.60
2022-08-05T17:50:28.952Z,27.70
2022-08-05T17:53:02.183Z,27.80
2022-08-05T17:55:37.499Z,27.40
2022-08-05T17:58:06.987Z,27.30
2022-08-05T18:00:36.258Z,27.10
2022-08-05T18:03:08.052Z,26.50
2022-08-05T18:05:36.049Z,25.30
2022-08-05T18:08:03.536Z,24.60
2022-08-05T18:10:32.093Z,24.50
2022-08-05T18:13:00.607Z,24.50
2022-08-05T18:15:34.132Z,24.40
2022-08-05T18:18:05.534Z,24.30
2022-08-05T18:20:37.719Z,24.40
2022-08-05T18:23:11.449Z,24.60
2022-08-05T18:25:44.865Z,24.40
2022-08-05T18:28:16.060Z,24.80
2022-08-05T18:30:50.774Z,24.80
2022-08-05T18:33:22.991Z,24.90
2022-08-05T18:36:04.911Z,24.70
2022-08-05T18:38:35.089Z,24.30
2022-08-05T18:41:57.640Z,24.10
2022-08-05T18:43:50.313Z,24.20
2022-08-05T18:46:20.017Z,24.30
2022-08-05T18:48:51.805Z,24.20
2022-08-05T18:52:06.256Z,24.10
2022-08-05T18:54:28.402Z,23.90
2022-08-05T18:56:58.136Z,23.60
2022-08-05T18:59:44.408Z,23.30
2022-08-05T19:02:27.203Z,23.30
2022-08-05T19:05:02.092Z,23.20
2022-08-05T19:07:45.124Z,23.10
2022-08-05T19:10:13.770Z,23.10
2022-08-05T19:12:40.560Z,22.90
2022-08-05T19:15:57.869Z,22.90
2022-08-05T19:18:08.449Z,22.80
2022-08-05T19:20:41.400Z,22.80
2022-08-05T19:23:22.491Z,22.70
2022-08-05T19:26:01.766Z,22.60
2022-08-05T19:28:30.718Z,22.60
2022-08-05T19:30:57.721Z,22.50
2022-08-05T19:33:35.547Z,22.40
2022-08-05T19:36:06.377Z,22.40
2022-08-05T19:38:35.688Z,22.30
2022-08-05T19:41:03.220Z,22.30
2022-08-05T19:44:06.134Z,22.30
2022-08-05T19:46:29.207Z,22.20
2022-08-05T19:49:02.859Z,22.10
2022-08-05T19:52:05.097Z,22.10
2022-08-05T19:54:25.517Z,22.00
2022-08-05T19:56:55.583Z,22.00
2022-08-05T20:00:00.488Z,21.90
2022-08-05T20:02:09.257Z,21.90
2022-08-05T20:04:38.025Z,21.80
2022-08-05T20:07:13.410Z,21.80
2022-08-05T20:09:54.936Z,21.70
2022-08-05T20:12:24.326Z,21.60
2022-08-05T20:14:52.898Z,21.60
2022-08-05T20:17:23.195Z,21.50
2022-08-05T20:19:57.048Z,21.40
2022-08-05T20:22:26.683Z,21.50
2022-08-05T20:24:54.722Z,21.40
2022-08-05T20:27:26.977Z,21.30
2022-08-05T20:29:57.596Z,21.30
2022-08-05T20:32:25.150Z,21.30
2022-08-05T20:34:51.965Z,21.30
2022-08-05T20:38:04.893Z,21.20
2022-08-05T20:40:06.246Z,21.20
2022-08-05T20:42:33.488Z,21.10
2022-08-05T20:45:02.636Z,21.00
2022-08-05T20:47:31.730Z,21.00
2022-08-05T20:49:59.202Z,20.90
2022-08-05T20:52:26.247Z,20.90
2022-08-05T20:55:15.820Z,20.80
2022-08-05T20:57:43.151Z,20.70
2022-08-05T21:00:41.642Z,20.70
2022-08-05T21:03:06.249Z,20.70
2022-08-05T21:05:48.293Z,20.60
2022-08-05T21:08:28.106Z,20.60
2022-08-05T21:11:09.934Z,20.50
2022-08-05T21:13:48.150Z,20.40
2022-08-05T21:16:30.219Z,20.40
2022-08-05T21:18:59.871Z,20.30
2022-08-05T21:21:44.533Z,20.30
2022-08-05T21:24:15.820Z,20.20
2022-08-05T21:26:48.578Z,20.20
2022-08-05T21:29:26.450Z,20.10
2022-08-05T21:31:53.722Z,20.10
2022-08-05T21:34:20.911Z,20.00
2022-08-05T21:36:49.285Z,20.00
2022-08-05T21:39:16.868Z,20.00
2022-08-05T21:41:52.865Z,20.00
2022-08-05T21:44:28.346Z,19.90
2022-08-05T21:46:55.659Z,19.90
2022-08-05T21:49:58.932Z,19.80
2022-08-05T21:52:21.999Z,19.80
2022-08-05T21:54:56.637Z,19.70
2022-08-05T21:57:32.314Z,19.70
2022-08-05T22:00:05.984Z,19.60
2022-08-05T22:02:33.930Z,19.60
2022-08-05T22:05:00.867Z,19.60
2022-08-05T22:07:54.168Z,19.60
2022-08-05T22:10:15.301Z,19.50
2022-08-05T22:12:44.986Z,19.50
2022-08-05T22:15:56.634Z,19.50
2022-08-05T22:18:04.801Z,19.40
2022-08-05T22:20:31.648Z,19.40
2022-08-05T22:23:21.502Z,19.40
2022-08-05T22:26:10.015Z,19.40
2022-08-05T22:28:38.521Z,19.40
2022-08-05T22:31:05.875Z,19.20
2022-08-05T22:33:55.786Z,19.20
2022-08-05T22:36:24.156Z,19.20
2022-08-05T22:38:51.269Z,19.20
2022-08-05T22:42:04.521Z,19.20
2022-08-05T22:44:07.004Z,19.10
2022-08-05T22:46:33.835Z,19.10
2022-08-05T22:49:23.620Z,19.00
2022-08-05T22:52:07.673Z,19.10
2022-08-05T22:54:48.775Z,19.00
2022-08-05T22:57:15.841Z,18.90
2022-08-05T22:59:50.400Z,18.90
2022-08-05T23:02:29.624Z,18.90
2022-08-05T23:05:02.082Z,18.80
2022-08-05T23:07:32.153Z,18.80
2022-08-05T23:10:02.027Z,18.70
2022-08-05T23:12:32.674Z,18.70
2022-08-05T23:15:03.387Z,18.70
2022-08-05T23:17:34.902Z,18.60
2022-08-05T23:20:15.566Z,18.60
2022-08-05T23:22:48.521Z,18.60
2022-08-05T23:25:54.570Z,18.60
2022-08-05T23:28:07.047Z,18.60
2022-08-05T23:30:40.215Z,18.60
2022-08-05T23:33:22.593Z,18.50
2022-08-05T23:35:58.606Z,18.50
2022-08-05T23:38:26.692Z,18.50
2022-08-05T23:40:53.682Z,18.50
2022-08-05T23:43:24.921Z,18.40
2022-08-05T23:46:20.971Z,18.30
2022-08-05T23:49:01.114Z,18.20
2022-08-05T23:51:52.560Z,18.20
2022-08-05T23:54:26.141Z,18.20
2022-08-05T23:56:54.430Z,18.20
2022-08-05T23:59:22.128Z,18.20
